»·PEaware :: N6182G O60-KSQL

N6182G :: O60-KSQL

FLIGHT INFORMATION

Flight Status: Arrived
Operator: Privately registered:
United States
More flights under this callsign
Pilot: Bruno O. (13284)
Aircraft: CESSNA 182 SKYLANE
(C182)
More flights by this aircraft type
Origin: O60 Cloverdale Mun
United States
Destination: KSQL San Carlos
United States
More flights between these airports :: More routes between these airports
Route: +STS V301 PYE PYE2
File this flight plan on PilotEdge
Remarks: RMK / WILL EXECUTE ODP RWY14
Altitude:
(Current/Filed)
7,000ft
Speed:
(Current/Filed)
120kts
Departed: 23-May-17 08:07 AM
Arrived: 23-May-17 09:08 AM
Distance/Time
Traveled:
84nm/1:00
Distance/Time
To Go:
Arrived

Flight Plot

Page will automatically refresh every two minutes.

Flight plan parsing failed; only flown route is shown


Map Options




Map Legend


Flown Route
Filed Route
Departure Airport
Arrival Airport
Navaid (VOR, NDB)
Fix

Horizontal Profiles

Position Reports

Time Latitude Longitude Heading Altitude Ground
Speed
23-May-17 07:55 38.774809 -122.993086 243 275ft 0kts
23-May-17 07:56 38.774809 -122.993086 243 275ft 0kts
23-May-17 07:57 38.774809 -122.993086 243 275ft 0kts
23-May-17 07:58 38.774809 -122.993086 243 275ft 0kts
23-May-17 07:59 38.774809 -122.993086 243 275ft 0kts
23-May-17 08:00 38.774808 -122.993086 243 275ft 0kts
23-May-17 08:01 38.774806 -122.993092 243 275ft 0kts
23-May-17 08:02 38.774804 -122.993099 243 275ft 0kts
23-May-17 08:03 38.774801 -122.993105 243 275ft 0kts
23-May-17 08:04 38.774901 -122.993153 94 275ft 5kts
23-May-17 08:05 38.775533 -122.992751 333 275ft 11kts
23-May-17 08:06 38.779109 -122.995201 292 275ft 8kts
23-May-17 08:07 38.779299 -122.995356 29 275ft 0kts
23-May-17 08:08 38.779278 -122.994547 148 275ft 20kts
23-May-17 08:09 38.760235 -122.982741 159 813ft 92kts
23-May-17 08:10 38.737828 -122.966807 147 1509ft 87kts
23-May-17 08:11 38.716677 -122.951955 151 2156ft 89kts
23-May-17 08:12 38.694023 -122.936505 152 2797ft 95kts
23-May-17 08:13 38.670717 -122.920693 152 3467ft 93kts
23-May-17 08:14 38.647982 -122.905245 151 4148ft 91kts
23-May-17 08:15 38.625757 -122.890150 150 4825ft 89kts
23-May-17 08:16 38.603923 -122.875328 150 5510ft 88kts
23-May-17 08:17 38.581036 -122.859841 150 6067ft 97kts
23-May-17 08:18 38.556141 -122.843003 150 6569ft 105kts
23-May-17 08:19 38.529797 -122.825181 150 6983ft 114kts
23-May-17 08:20 38.498177 -122.811831 186 7001ft 129kts
23-May-17 08:21 38.462684 -122.816791 183 7005ft 130kts
23-May-17 08:22 38.426081 -122.821676 183 7006ft 134kts
23-May-17 08:23 38.388494 -122.826710 183 7002ft 134kts
23-May-17 08:24 38.351285 -122.831689 183 7005ft 134kts
23-May-17 08:25 38.314079 -122.836662 183 7008ft 134kts
23-May-17 08:26 38.276888 -122.841637 183 7010ft 134kts
23-May-17 08:27 38.239590 -122.846629 183 7012ft 134kts
23-May-17 08:28 38.202433 -122.851582 183 7014ft 134kts
23-May-17 08:29 38.165265 -122.856506 183 7015ft 134kts
23-May-17 08:30 38.128107 -122.861432 183 7021ft 134kts
23-May-17 08:31 38.090846 -122.866380 183 7023ft 134kts
23-May-17 08:32 38.055334 -122.858757 153 7023ft 131kts
23-May-17 08:33 38.020949 -122.842305 158 7023ft 132kts
23-May-17 08:34 37.986035 -122.827033 159 7024ft 132kts
23-May-17 08:35 37.951547 -122.812067 159 7019ft 130kts
23-May-17 08:36 37.917513 -122.797304 159 7021ft 129kts
23-May-17 08:37 37.883577 -122.782596 159 7022ft 129kts
23-May-17 08:38 37.850910 -122.768454 159 7023ft 129kts
23-May-17 08:39 37.816913 -122.753752 159 7024ft 129kts
23-May-17 08:40 37.782944 -122.739069 159 7025ft 129kts
23-May-17 08:41 37.748843 -122.724341 159 7027ft 129kts
23-May-17 08:42 37.714830 -122.709672 159 7028ft 129kts
23-May-17 08:43 37.680843 -122.695036 159 7029ft 129kts
23-May-17 08:44 37.646837 -122.680399 159 7029ft 129kts
23-May-17 08:45 37.612701 -122.665718 159 7028ft 129kts
23-May-17 08:46 37.578651 -122.651089 159 7027ft 129kts
23-May-17 08:47 37.544647 -122.636499 159 7028ft 129kts
23-May-17 08:48 37.510654 -122.621920 159 7030ft 129kts
23-May-17 08:49 37.476563 -122.607323 159 7031ft 129kts
23-May-17 08:50 37.442572 -122.592775 159 7032ft 129kts
23-May-17 08:51 37.408656 -122.578045 153 7029ft 129kts
23-May-17 08:52 37.403142 -122.537029 94 6996ft 133kts
23-May-17 08:53 37.399590 -122.485911 94 6294ft 152kts
23-May-17 08:54 37.397644 -122.432142 93 5598ft 154kts
23-May-17 08:55 37.395831 -122.378682 93 5108ft 146kts
23-May-17 08:56 37.394172 -122.330018 93 5107ft 135kts
23-May-17 08:57 37.391837 -122.281706 107 5106ft 142kts
23-May-17 08:58 37.366852 -122.243881 130 5105ft 143kts
23-May-17 08:59 37.341523 -122.206504 130 5097ft 139kts
23-May-17 09:00 37.316900 -122.170419 130 5095ft 133kts
23-May-17 09:01 37.308757 -122.129729 45 4864ft 146kts
23-May-17 09:02 37.339790 -122.094857 43 4411ft 153kts
23-May-17 09:03 37.376043 -122.069695 343 3697ft 155kts
23-May-17 09:04 37.406315 -122.105276 311 3001ft 146kts
23-May-17 09:05 37.430982 -122.139084 311 2252ft 118kts
23-May-17 09:06 37.452300 -122.168366 311 1551ft 106kts
23-May-17 09:07 37.471169 -122.194256 312 1029ft 94kts
23-May-17 09:08 37.485017 -122.218414 311 736ft 83kts
23-May-17 09:09 37.500278 -122.236631 323 254ft 74kts
23-May-17 09:10 37.512624 -122.250366 320 8ft 26kts
23-May-17 09:11 37.512076 -122.250421 137 8ft 14kts
23-May-17 09:12 37.511357 -122.250717 317 8ft 0kts
23-May-17 09:13 37.511357 -122.250717 317 8ft 0kts

Navigation Log

Ident Type
Flight plan parsing failed, navigation log unavailable